Sara K — WBP4759 — position and weather

sailwx.info

Track history (hours):
 
Tides and Currents Weather Stations Pressure Air Temp Water Temp Dewpoint Dewpoint Depression Visibility Wind Speed Wind Dir Waves Ship Positions

Sara K

Owner: The Tug Sara K, L.L.C., SUGAR LAND, TX. More information available from US FCC via Universal Licensing System and Coast Guard Vessel Documentation Center.

Last reported at 2017-Oct-19 08:00 UTC. Time now 2017-Oct-20 05:01 UTC.
Position N 29°47' W 095°04'.

Length 14 m.

Type: Towing. MMSI: 366986670.

Date/timePositionNaut miles runAvg speedWind from/ knotsBaromVisibWave heightAir tempDewpointWater temp
2017-Oct-19 08:00N 29°47' W 095°04'1 1.1
2017-Oct-19 07:25N 29°48' W 095°04'0 0.0
2017-Oct-18 12:17N 29°48' W 095°04'0 1.4
2017-Oct-18 11:57N 29°48' W 095°03'1 0.6
2017-Oct-18 11:01N 29°47' W 095°04'0 0.0
2017-Oct-18 11:00N 29°47' W 095°04'0 0.5
2017-Oct-18 10:29N 29°47' W 095°04'1 0.4
2017-Oct-18 08:51N 29°48' W 095°04'0 0.0
2017-Oct-18 08:28N 29°48' W 095°04'1 1.2
2017-Oct-18 08:00N 29°48' W 095°03'6 0.5
2017-Oct-17 20:03N 29°44' W 095°08'1 7.2
2017-Oct-17 19:59N 29°44' W 095°09'4 6.1
2017-Oct-17 19:20N 29°44' W 095°13'2 5.9
2017-Oct-17 18:59N 29°44' W 095°16'2 2.9
2017-Oct-17 18:26N 29°45' W 095°17'1 2.8
2017-Oct-17 17:56N 29°45' W 095°18'1 2.9
2017-Oct-17 17:30N 29°45' W 095°17'2 3.4
2017-Oct-17 17:00N 29°44' W 095°16'2 3.6
2017-Oct-17 16:30N 29°45' W 095°17'1 0.7
2017-Oct-17 15:45N 29°45' W 095°18'0 0.9
2017-Oct-17 15:29N 29°45' W 095°18'1 1.0
2017-Oct-17 14:59N 29°45' W 095°18'0 0.0
2017-Oct-17 14:30N 29°45' W 095°18'0 0.0
2017-Oct-17 14:00N 29°45' W 095°18'0 0.0
2017-Oct-17 13:30N 29°45' W 095°18'0 0.7
2017-Oct-17 13:00N 29°45' W 095°19'0 0.0
2017-Oct-17 12:27N 29°45' W 095°19'0 0.0
2017-Oct-17 12:00N 29°45' W 095°19'1 2.5
2017-Oct-17 11:30N 29°45' W 095°17'3 5.9
2017-Oct-17 11:00N 29°43' W 095°15'3 6.3
2017-Oct-17 10:30N 29°45' W 095°11'  
2017-Oct-14 23:58N 29°47' W 095°04'1 0.0
2017-Oct-14 04:36N 29°48' W 095°04'0 0.0
2017-Oct-12 08:13N 29°48' W 095°03'1 2.1
2017-Oct-12 07:56N 29°47' W 095°04'1 0.3
2017-Oct-12 05:09N 29°48' W 095°04'12 0.4
2017-Oct-11 00:00N 29°44' W 095°17'1 2.9
2017-Oct-10 23:29N 29°45' W 095°18'1 1.1
2017-Oct-10 22:57N 29°45' W 095°19'2 4.1
2017-Oct-10 22:30N 29°44' W 095°17'4 2.2
2017-Oct-10 20:53N 29°44' W 095°13'0 0.0
2017-Oct-10 20:30N 29°44' W 095°13'  
Track history (hours):
 
Tides and Currents Weather Stations Pressure Air Temp Water Temp Dewpoint Dewpoint Depression Visibility Wind Speed Wind Dir Waves Ship Positions

Sara K

Owner: The Tug Sara K, L.L.C., SUGAR LAND, TX. More information available from US FCC via Universal Licensing System and Coast Guard Vessel Documentation Center.

Last reported at 2017-Oct-19 08:00 UTC. Time now 2017-Oct-20 05:01 UTC.
Position N 29°47' W 095°04'.

Length 14 m.

Type: Towing. MMSI: 366986670.

Date/timePositionNaut miles runAvg speedWind from/ knotsBaromVisibWave heightAir tempDewpointWater temp
2017-Oct-19 08:00N 29°47' W 095°04'1 1.1
2017-Oct-19 07:25N 29°48' W 095°04'0 0.0
2017-Oct-18 12:17N 29°48' W 095°04'0 1.4
2017-Oct-18 11:57N 29°48' W 095°03'1 0.6
2017-Oct-18 11:01N 29°47' W 095°04'0 0.0
2017-Oct-18 11:00N 29°47' W 095°04'0 0.5
2017-Oct-18 10:29N 29°47' W 095°04'1 0.4
2017-Oct-18 08:51N 29°48' W 095°04'0 0.0
2017-Oct-18 08:28N 29°48' W 095°04'1 1.2
2017-Oct-18 08:00N 29°48' W 095°03'6 0.5
2017-Oct-17 20:03N 29°44' W 095°08'1 7.2
2017-Oct-17 19:59N 29°44' W 095°09'4 6.1
2017-Oct-17 19:20N 29°44' W 095°13'2 5.9
2017-Oct-17 18:59N 29°44' W 095°16'2 2.9
2017-Oct-17 18:26N 29°45' W 095°17'1 2.8
2017-Oct-17 17:56N 29°45' W 095°18'1 2.9
2017-Oct-17 17:30N 29°45' W 095°17'2 3.4
2017-Oct-17 17:00N 29°44' W 095°16'2 3.6
2017-Oct-17 16:30N 29°45' W 095°17'1 0.7
2017-Oct-17 15:45N 29°45' W 095°18'0 0.9
2017-Oct-17 15:29N 29°45' W 095°18'1 1.0
2017-Oct-17 14:59N 29°45' W 095°18'0 0.0
2017-Oct-17 14:30N 29°45' W 095°18'0 0.0
2017-Oct-17 14:00N 29°45' W 095°18'0 0.0
2017-Oct-17 13:30N 29°45' W 095°18'0 0.7
2017-Oct-17 13:00N 29°45' W 095°19'0 0.0
2017-Oct-17 12:27N 29°45' W 095°19'0 0.0
2017-Oct-17 12:00N 29°45' W 095°19'1 2.5
2017-Oct-17 11:30N 29°45' W 095°17'3 5.9
2017-Oct-17 11:00N 29°43' W 095°15'3 6.3
2017-Oct-17 10:30N 29°45' W 095°11'  
2017-Oct-14 23:58N 29°47' W 095°04'1 0.0
2017-Oct-14 04:36N 29°48' W 095°04'0 0.0
2017-Oct-12 08:13N 29°48' W 095°03'1 2.1
2017-Oct-12 07:56N 29°47' W 095°04'1 0.3
2017-Oct-12 05:09N 29°48' W 095°04'12 0.4
2017-Oct-11 00:00N 29°44' W 095°17'1 2.9
2017-Oct-10 23:29N 29°45' W 095°18'1 1.1
2017-Oct-10 22:57N 29°45' W 095°19'2 4.1
2017-Oct-10 22:30N 29°44' W 095°17'4 2.2
2017-Oct-10 20:53N 29°44' W 095°13'0 0.0
2017-Oct-10 20:30N 29°44' W 095°13'  

Dump ship's entire track history